Effective Sunday, March 17, 2024, the National Weather Service National Data Buoy Center will discontinue its Dial-A-Buoy Interactive Voice Response system. For more information, see Service Change Notice 24-06 (PDF).

Station PGXA2 - Point Gardner Image indicating link to RSS feed of recent meteorological observations for station PGXA2


Conditions at PGXA2 as of
(2:03 pm AKST)
2303 GMT on 03/03/2024:
     

Click on the graph icon in the table below to see a time series plot of the last five days of that observation.

5-day plot - Wind Direction Wind Direction (WDIR):NNW ( 330 deg true )
5-day plot - Wind Speed Wind Speed (WSPD): 18 kts
5-day plot - Wind Gust Wind Gust (GST): 29 kts
5-day plot - Air Temperature Air Temperature (ATMP): 21.6 °F
5-day plot - Dew Point Dew Point (DEWP): 8.2 °F
5-day plot - Wind Chill Wind Chill (CHILL): 6.1 °F
5-day plot - Wind Speed at 10 Meters Wind Speed at 10 meters (WSPD10M): 19 kts
5-day plot - Wind Speed at 20 Meters Wind Speed at 20 meters (WSPD20M): 21 kts
5-day plot -  Wind Speed, Wind Gust and Atmospheric Pressure Combined plot of Wind Speed, Gust, and Air Pressure
Previous observations
TIME
(AKST)
5-day plot - Wind Direction
WDIR
 
5-day plot - Wind Speed
WSPD
kts
5-day plot - Wind Gust
GST
kts
5-day plot - Wave Height
WVHT
ft
5-day plot - Dominant Wave Period
DPD
sec
5-day plot - Average Wave Period
APD
sec
5-day plot - Mean Wave Direction
MWD
 
5-day plot - Atmospheric Pressure
PRES
in
5-day plot - Pressure Tendency
PTDY
in
5-day plot - Air Temperature
ATMP
°F
5-day plot - Water Temperature
WTMP
°F
5-day plot - Dew Point
DEWP
°F
5-day plot - Salinity
SAL
psu
5-day plot - Visibility
VIS
nmi
5-day plot - Tide (above MLLW)
TIDE
ft
2024-03-03 01:53 pmNNW 19 30------ 21.6- 8.1---
2024-03-03 01:43 pmNNW 17 30------ 21.2- 6.6---
2024-03-03 01:33 pmNNW 18 29------ 21.2- 7.3---
2024-03-03 01:23 pmNNW 18 29------ 21.2- 8.4---
2024-03-03 01:13 pmNNW 19 28------ 20.8- 7.9---
2024-03-03 01:03 pmNNW 20 29------ 20.7- 8.4---
2024-03-03 12:53 pmNNW 19 29------ 20.3- 7.3---
2024-03-03 12:43 pmNNW 18 30------ 20.3- 7.5---
2024-03-03 12:33 pmNNW 20 31------ 19.9- 7.3---
2024-03-03 12:23 pmNNW 19 31------ 19.4- 6.1---
2024-03-03 12:13 pmNNW 19 31------ 19.6- 7.3---
2024-03-03 12:03 pmNNW 17 30------ 19.2- 5.7---
2024-03-03 11:53 amNNW 20 32------ 19.2- 6.6---
2024-03-03 11:43 amNNW 21 31------ 19.4- 7.9---
2024-03-03 11:33 amNNW 18 30------ 18.3- 5.0---
2024-03-03 11:23 amNNW 19 31------ 18.5- 6.8---
2024-03-03 11:13 amNNW 18 32------ 18.0- 5.7---
2024-03-03 11:03 amNNW 17 30------ 17.8- 5.5---
2024-03-03 10:53 amNNW 17 33------ 17.6- 5.5---
2024-03-03 10:43 amNNW 19 34------ 17.6- 6.1---
2024-03-03 10:33 amNNW 19 34------ 17.6- 6.6---
2024-03-03 10:23 amNNW 15 28------ 16.9- 4.6---
2024-03-03 10:13 amNNW 19 33------ 16.7- 5.0---
2024-03-03 10:03 amNNW 18 31------ 16.3- 4.5---
2024-03-03 09:53 amNNW 22 36------ 16.9- 6.1---
2024-03-03 09:43 amNNW 23 38------ 16.7- 5.7---
2024-03-03 09:33 amNNW 22 47------ 16.3- 5.5---
2024-03-03 09:23 amNNW 23 41------ 16.2- 5.2---
2024-03-03 09:13 amNNW 23 36------ 16.3- 6.1---
2024-03-03 09:03 amNNW 21 43------ 15.8- 4.5---
2024-03-03 08:53 amNNW 19 34------ 15.6- 4.1---
2024-03-03 08:43 amNNW 19 34------ 15.6- 3.9---
2024-03-03 08:33 amNNW 18 36------ 15.3- 2.8---
2024-03-03 08:23 amNNW 21 37------ 15.3- 2.8---
2024-03-03 08:13 amNNW 20 41------ 15.3- 3.2---
2024-03-03 08:03 amNNW 20 35------ 15.4- 3.6---
2024-03-03 07:53 amNNW 18 34------ 15.4- 4.1---
2024-03-03 07:43 amNNW 19 33------ 15.8- 5.4---
2024-03-03 07:33 amNNW 18 30------ 15.6- 5.0---
2024-03-03 07:23 amNNW 18 34------ 15.6- 4.6---
2024-03-03 07:13 amNNW 20 33------ 16.0- 5.4---
2024-03-03 07:03 amNNW 16 29------ 15.4- 4.1---
2024-03-03 06:53 amNNW 17 31------ 15.3- 3.2---
2024-03-03 06:43 amNNW 16 29------ 15.6- 3.7---
2024-03-03 06:33 amNNW 18 34------ 15.8- 3.9---
2024-03-03 06:23 amNNW 18 35------ 16.3- 5.2---
2024-03-03 06:13 amNNW 19 34------ 16.2- 4.5---
2024-03-03 06:03 amNNW 20 33------ 15.8- 3.0---
2024-03-03 05:53 amNNW 19 32------ 16.0- 3.9---
2024-03-03 05:43 amNNW 20 33------ 16.2- 3.4---
2024-03-03 05:33 amNNW 20 33------ 16.2- 3.0---
2024-03-03 05:23 amNNW 20 32------ 16.5- 4.1---
2024-03-03 05:13 amNNW 19 34------ 16.3- 3.7---
2024-03-03 05:03 amNNW 18 31------ 16.2- 3.2---
2024-03-03 04:53 amNNW 19 32------ 16.2- 3.6---
2024-03-03 04:43 amNNW 18 31------ 16.3- 3.7---
2024-03-03 04:33 amNNW 17 33------ 16.5- 4.3---
2024-03-03 04:23 amNNW 19 31------ 16.2- 2.7---
2024-03-03 04:13 amNNW 17 31------ 16.3- 3.0---
2024-03-03 04:03 amNNW 14 31------ 16.3- 3.4---
2024-03-03 03:53 amNNW 16 29------ 16.5- 3.7---
2024-03-03 03:43 amNNW 15 30------ 16.3- 3.6---
2024-03-03 03:33 amNNW 17 35------ 16.5- 4.1---
2024-03-03 03:23 amNNW 17 32------ 16.5- 3.6---
2024-03-03 03:13 amNNW 18 34------ 16.7- 3.7---
2024-03-03 03:03 amNNW 17 36------ 17.1- 4.5---
2024-03-03 02:53 amNNW 19 33------ 17.1- 4.3---
2024-03-03 02:43 amNNW 19 36------ 17.4- 4.5---
2024-03-03 02:33 amNNW 21 36------ 18.0- 6.4---
2024-03-03 02:23 amNNW 19 35------ 17.2- 4.3---
2024-03-03 02:13 amNNW 19 34------ 17.6- 4.8---
2024-03-03 02:03 amNNW 18 34------ 18.0- 5.2---
2024-03-03 01:53 amNNW 21 35------ 17.8- 5.0---
2024-03-03 01:33 amNNW 18 37------ 18.0- 5.4---
2024-03-03 01:23 amNNW 18 35------ 18.1- 5.9---
2024-03-03 01:13 amNNW 19 35------ 18.0- 4.5---
2024-03-03 01:03 amNNW 18 35------ 18.0- 4.6---
2024-03-03 12:53 amNNW 18 33------ 18.1- 5.0---
2024-03-03 12:43 amNNW 18 32------ 18.3- 5.5---
2024-03-03 12:33 amNNW 17 30------ 18.3- 6.3---
2024-03-03 12:23 amNNW 17 32------ 18.3- 6.1---
2024-03-03 12:13 amNNW 20 32------ 18.3- 5.9---
2024-03-03 12:03 amNNW 18 36------ 18.9- 7.0---
2024-03-02 11:53 pmNNW 18 32------ 18.3- 5.5---
2024-03-02 11:43 pmNNW 20 32------ 18.5- 6.1---
2024-03-02 11:33 pmNNW 18 34------ 18.3- 5.5---
2024-03-02 11:23 pmNNW 18 36------ 18.5- 6.3---
2024-03-02 11:13 pmNNW 18 32------ 18.5- 6.3---
2024-03-02 11:03 pmNNW 18 32------ 18.3- 6.3---
2024-03-02 10:53 pmNNW 19 36------ 18.3- 5.9---
2024-03-02 10:43 pmNNW 19 32------ 18.9- 7.2---
2024-03-02 10:33 pmNNW 20 34------ 18.7- 6.4---
2024-03-02 10:23 pmNNW 20 36------ 18.9- 6.4---
2024-03-02 10:13 pmNNW 20 38------ 19.0- 7.0---
2024-03-02 10:03 pmNNW 20 35------ 18.7- 6.1---
2024-03-02 09:53 pmNNW 19 35------ 18.9- 6.4---
2024-03-02 09:43 pmNNW 20 33------ 19.2- 7.3---
2024-03-02 09:33 pmNNW 21 43------ 19.6- 8.2---
2024-03-02 09:23 pmNNW 21 35------ 19.4- 7.5---
2024-03-02 09:13 pmNNW 23 35------ 19.8- 8.1---
2024-03-02 09:03 pmNNW 21 35------ 19.6- 7.2---
2024-03-02 08:53 pmNNW 20 34------ 19.8- 7.5---
2024-03-02 08:43 pmNNW 19 35------ 19.4- 6.8---
2024-03-02 08:33 pmNNW 21 40------ 19.8- 7.5---
2024-03-02 08:23 pmNNW 19 36------ 20.1- 8.1---
2024-03-02 08:13 pmNNW 20 32------ 20.1- 8.6---
2024-03-02 08:03 pmNNW 18 37------ 19.9- 7.5---
2024-03-02 07:53 pmNNW 17 34------ 19.8- 6.8---
2024-03-02 07:43 pmNNW 18 34------ 19.6- 6.1---
2024-03-02 07:33 pmNNW 17 31------ 19.8- 6.3---
2024-03-02 07:23 pmNNW 17 36------ 19.8- 6.3---
2024-03-02 07:13 pmNNW 17 28------ 19.9- 6.4---
2024-03-02 07:03 pmNNW 18 33------ 20.5- 7.3---
2024-03-02 06:53 pmNNW 18 36------ 20.3- 6.4---
2024-03-02 06:43 pmNNW 18 32------ 20.5- 7.2---
2024-03-02 06:33 pmNNW 20 38------ 20.8- 7.3---
2024-03-02 06:23 pmNNW 21 35------ 21.0- 8.1---
2024-03-02 06:13 pmNNW 19 34------ 20.8- 7.0---
2024-03-02 06:03 pmNNW 19 32------ 21.4- 8.1---
2024-03-02 05:53 pmNNW 19 36------ 21.7- 8.8---
2024-03-02 05:43 pmNNW 22 36------ 22.1- 9.1---
2024-03-02 05:33 pmNNW 23 38------ 22.6- 10.6---
2024-03-02 05:23 pmNNW 23 36------ 22.3- 9.1---
2024-03-02 05:13 pmNNW 23 38------ 22.5- 9.0---
2024-03-02 05:03 pmNNW 22 32------ 22.6- 9.1---
2024-03-02 04:53 pmNNW 22 37------ 23.2- 10.2---
2024-03-02 04:33 pmNNW 24 36------ 23.4- 10.6---
2024-03-02 04:23 pmNNW 24 36------ 23.9- 12.2---
2024-03-02 04:13 pmNNW 23 36------ 23.5- 10.8---
2024-03-02 04:03 pmNNW 23 36------ 23.7- 11.3---
2024-03-02 03:43 pmNNW 21 33------ 23.5- 10.4---
2024-03-02 03:33 pmNNW 23 37------ 23.7- 10.6---
2024-03-02 03:23 pmNNW 23 36------ 23.7- 10.6---
2024-03-02 03:13 pmNNW 22 35------ 24.1- 11.7---
2024-03-02 02:53 pmNNW 22 35------ 23.9- 11.3---
2024-03-02 02:43 pmNNW 23 37------ 23.7- 10.2---
2024-03-02 02:33 pmNNW 23 34------ 23.9- 10.9---
2024-03-02 02:23 pmNNW 22 36------ 23.9- 11.3---
2024-03-02 02:13 pmNNW 23 37------ 23.7- 10.4---
2024-03-02 02:03 pmNNW 23 35------ 23.9- 11.5---
2024-03-02 01:53 pmNNW 22 33------ 24.1- 11.8---